sim
Sign-in with your pilot id or email,
or register
Callsign
Passwort

Schedule Details

Flight Number: OEC148
Departure: Vagar Airport (EKVG) at 13:20
Arrival: Munich Airport (EDDM) at 16:20
Route: MY2W MY G3 VALDI P613 BAVTA Z710 LUTIR UZ710 WRB UL126 DINKU UL603 AKANU AKANU3A

Weather Information
Getting current METAR information for EKVG 251020Z AUTO 32012KT 9999 BKN021/// 08/05 Q1010
Getting current METAR information for EDDM 251020Z 26005KT 9999 -RA FEW012 SCT020 BKN040 10/08 Q1002 NOSIG

Schedule Frequency

Route Map